sensor_id;sensor_type;location;lat;lon;timestamp;pressure;altitude;pressure_sealevel;temperature;humidity
72118;BME280;59992;47.490;8.736;2023-04-07T00:02:30;96635.25;;;7.27;62.84
72118;BME280;59992;47.490;8.736;2023-04-07T00:05:21;96633.09;;;7.28;63.61
72118;BME280;59992;47.490;8.736;2023-04-07T00:08:11;96631.45;;;7.26;62.62
72118;BME280;59992;47.490;8.736;2023-04-07T00:11:01;96625.02;;;7.23;63.04
72118;BME280;59992;47.490;8.736;2023-04-07T00:13:52;96626.16;;;7.22;62.27
72118;BME280;59992;47.490;8.736;2023-04-07T00:16:42;96623.86;;;7.21;64.66
72118;BME280;59992;47.490;8.736;2023-04-07T00:19:33;96619.27;;;7.21;64.34
72118;BME280;59992;47.490;8.736;2023-04-07T00:22:24;96615.86;;;7.20;63.20
72118;BME280;59992;47.490;8.736;2023-04-07T00:25:14;96610.34;;;7.20;64.73
72118;BME280;59992;47.490;8.736;2023-04-07T00:28:04;96606.19;;;7.19;63.91
72118;BME280;59992;47.490;8.736;2023-04-07T00:30:54;96605.39;;;7.18;65.04
72118;BME280;59992;47.490;8.736;2023-04-07T00:33:44;96601.44;;;7.17;62.28
72118;BME280;59992;47.490;8.736;2023-04-07T00:36:36;96596.77;;;7.14;64.63
72118;BME280;59992;47.490;8.736;2023-04-07T00:39:26;96587.05;;;7.13;65.20
72118;BME280;59992;47.490;8.736;2023-04-07T00:42:17;96579.85;;;7.12;63.89
72118;BME280;59992;47.490;8.736;2023-04-07T00:45:09;96570.80;;;7.08;66.52
72118;BME280;59992;47.490;8.736;2023-04-07T00:48:00;96563.16;;;7.07;66.11
72118;BME280;59992;47.490;8.736;2023-04-07T00:50:50;96555.00;;;7.07;66.55
72118;BME280;59992;47.490;8.736;2023-04-07T00:53:40;96544.48;;;7.01;64.68
72118;BME280;59992;47.490;8.736;2023-04-07T00:56:30;96550.27;;;7.07;63.61
72118;BME280;59992;47.490;8.736;2023-04-07T00:59:21;96546.11;;;7.06;66.21
72118;BME280;59992;47.490;8.736;2023-04-07T01:02:15;96543.16;;;7.05;67.02
72118;BME280;59992;47.490;8.736;2023-04-07T01:05:13;96537.48;;;7.02;66.88
72118;BME280;59992;47.490;8.736;2023-04-07T01:08:14;96535.23;;;7.02;65.84
72118;BME280;59992;47.490;8.736;2023-04-07T01:11:11;96532.04;;;7.01;65.64
72118;BME280;59992;47.490;8.736;2023-04-07T01:14:03;96531.29;;;7.00;66.02
72118;BME280;59992;47.490;8.736;2023-04-07T01:16:55;96527.98;;;7.01;66.81
72118;BME280;59992;47.490;8.736;2023-04-07T01:19:50;96526.27;;;7.02;65.66
72118;BME280;59992;47.490;8.736;2023-04-07T01:22:46;96521.95;;;7.01;65.78
72118;BME280;59992;47.490;8.736;2023-04-07T01:26:03;96525.80;;;7.01;65.73
72118;BME280;59992;47.490;8.736;2023-04-07T01:29:21;96522.10;;;7.01;66.83
72118;BME280;59992;47.490;8.736;2023-04-07T01:32:14;96519.77;;;7.01;66.92
72118;BME280;59992;47.490;8.736;2023-04-07T01:35:11;96518.69;;;7.02;64.98
72118;BME280;59992;47.490;8.736;2023-04-07T01:38:03;96515.30;;;7.03;65.42
72118;BME280;59992;47.490;8.736;2023-04-07T01:40:54;96513.69;;;7.01;66.53
72118;BME280;59992;47.490;8.736;2023-04-07T01:43:46;96517.00;;;7.01;67.61
72118;BME280;59992;47.490;8.736;2023-04-07T01:46:37;96517.31;;;6.99;67.44
72118;BME280;59992;47.490;8.736;2023-04-07T01:49:29;96515.30;;;6.97;67.95
72118;BME280;59992;47.490;8.736;2023-04-07T01:52:20;96512.27;;;6.97;67.64
72118;BME280;59992;47.490;8.736;2023-04-07T01:55:11;96514.16;;;6.97;65.24
72118;BME280;59992;47.490;8.736;2023-04-07T01:58:05;96511.93;;;6.95;65.63
72118;BME280;59992;47.490;8.736;2023-04-07T02:00:56;96507.82;;;6.93;64.96
72118;BME280;59992;47.490;8.736;2023-04-07T02:03:51;96503.96;;;6.92;65.38
72118;BME280;59992;47.490;8.736;2023-04-07T02:06:48;96493.79;;;6.89;65.76
72118;BME280;59992;47.490;8.736;2023-04-07T02:09:42;96492.95;;;6.86;64.48
72118;BME280;59992;47.490;8.736;2023-04-07T02:12:35;96494.12;;;6.81;65.41
72118;BME280;59992;47.490;8.736;2023-04-07T02:15:27;96490.96;;;6.79;65.42
72118;BME280;59992;47.490;8.736;2023-04-07T02:18:20;96490.63;;;6.77;65.78
72118;BME280;59992;47.490;8.736;2023-04-07T02:21:12;96481.42;;;6.71;65.17
72118;BME280;59992;47.490;8.736;2023-04-07T02:24:06;96480.44;;;6.68;65.58
72118;BME280;59992;47.490;8.736;2023-04-07T02:26:56;96479.30;;;6.65;67.01
72118;BME280;59992;47.490;8.736;2023-04-07T02:29:49;96479.39;;;6.63;65.80
72118;BME280;59992;47.490;8.736;2023-04-07T02:32:39;96477.34;;;6.59;66.68
72118;BME280;59992;47.490;8.736;2023-04-07T02:35:29;96471.70;;;6.56;67.71
72118;BME280;59992;47.490;8.736;2023-04-07T02:38:26;96473.36;;;6.56;68.10
72118;BME280;59992;47.490;8.736;2023-04-07T02:41:17;96467.98;;;6.55;66.40
72118;BME280;59992;47.490;8.736;2023-04-07T02:44:07;96467.55;;;6.50;65.76
72118;BME280;59992;47.490;8.736;2023-04-07T02:46:57;96463.54;;;6.49;66.12
72118;BME280;59992;47.490;8.736;2023-04-07T02:49:47;96463.28;;;6.48;66.67
72118;BME280;59992;47.490;8.736;2023-04-07T02:52:40;96458.27;;;6.44;68.06
72118;BME280;59992;47.490;8.736;2023-04-07T02:55:30;96454.48;;;6.43;68.36
72118;BME280;59992;47.490;8.736;2023-04-07T02:58:21;96452.81;;;6.42;68.57
72118;BME280;59992;47.490;8.736;2023-04-07T03:01:11;96447.83;;;6.42;66.68
72118;BME280;59992;47.490;8.736;2023-04-07T03:04:02;96443.96;;;6.40;66.71
72118;BME280;59992;47.490;8.736;2023-04-07T03:06:52;96438.20;;;6.38;67.02
72118;BME280;59992;47.490;8.736;2023-04-07T03:09:44;96429.16;;;6.35;67.54
72118;BME280;59992;47.490;8.736;2023-04-07T03:12:34;96423.22;;;6.30;66.39
72118;BME280;59992;47.490;8.736;2023-04-07T03:15:25;96419.94;;;6.25;65.45
72118;BME280;59992;47.490;8.736;2023-04-07T03:18:15;96415.88;;;6.17;66.65
72118;BME280;59992;47.490;8.736;2023-04-07T03:21:05;96412.52;;;6.05;68.32
72118;BME280;59992;47.490;8.736;2023-04-07T03:23:56;96419.38;;;5.94;68.13
72118;BME280;59992;47.490;8.736;2023-04-07T03:26:46;96411.91;;;5.83;67.22
72118;BME280;59992;47.490;8.736;2023-04-07T03:29:36;96406.36;;;5.71;66.93
72118;BME280;59992;47.490;8.736;2023-04-07T03:32:26;96403.77;;;5.59;68.41
72118;BME280;59992;47.490;8.736;2023-04-07T03:35:16;96401.48;;;5.48;67.64
72118;BME280;59992;47.490;8.736;2023-04-07T03:38:06;96403.30;;;5.36;69.64
72118;BME280;59992;47.490;8.736;2023-04-07T03:40:56;96401.26;;;5.30;67.70
72118;BME280;59992;47.490;8.736;2023-04-07T03:43:46;96402.40;;;5.26;67.56
72118;BME280;59992;47.490;8.736;2023-04-07T03:46:37;96407.55;;;5.22;70.48
72118;BME280;59992;47.490;8.736;2023-04-07T03:49:27;96404.70;;;5.21;70.08
72118;BME280;59992;47.490;8.736;2023-04-07T03:52:19;96398.84;;;5.21;70.71
72118;BME280;59992;47.490;8.736;2023-04-07T03:55:10;96398.36;;;5.22;69.24
72118;BME280;59992;47.490;8.736;2023-04-07T03:58:00;96395.15;;;5.22;71.77
72118;BME280;59992;47.490;8.736;2023-04-07T04:00:58;96398.97;;;5.25;71.53
72118;BME280;59992;47.490;8.736;2023-04-07T04:03:49;96396.52;;;5.28;68.41
72118;BME280;59992;47.490;8.736;2023-04-07T04:06:39;96400.54;;;5.31;70.83
72118;BME280;59992;47.490;8.736;2023-04-07T04:09:29;96398.89;;;5.32;69.85
72118;BME280;59992;47.490;8.736;2023-04-07T04:12:20;96397.21;;;5.29;71.69
72118;BME280;59992;47.490;8.736;2023-04-07T04:15:11;96393.98;;;5.26;71.84
72118;BME280;59992;47.490;8.736;2023-04-07T04:18:01;96391.13;;;5.26;72.57
72118;BME280;59992;47.490;8.736;2023-04-07T04:20:52;96395.73;;;5.27;72.39
72118;BME280;59992;47.490;8.736;2023-04-07T04:23:42;96399.91;;;5.31;72.58
72118;BME280;59992;47.490;8.736;2023-04-07T04:26:32;96388.93;;;5.28;72.86
72118;BME280;59992;47.490;8.736;2023-04-07T04:29:22;96399.02;;;5.38;71.72
72118;BME280;59992;47.490;8.736;2023-04-07T04:32:13;96396.34;;;5.42;72.88
72118;BME280;59992;47.490;8.736;2023-04-07T04:35:05;96398.29;;;5.46;71.07
72118;BME280;59992;47.490;8.736;2023-04-07T04:37:56;96391.77;;;5.50;69.68
72118;BME280;59992;47.490;8.736;2023-04-07T04:40:46;96395.70;;;5.48;73.14
72118;BME280;59992;47.490;8.736;2023-04-07T04:43:36;96388.78;;;5.46;73.58
72118;BME280;59992;47.490;8.736;2023-04-07T04:46:26;96384.56;;;5.43;74.18
72118;BME280;59992;47.490;8.736;2023-04-07T04:49:16;96383.52;;;5.42;73.61
72118;BME280;59992;47.490;8.736;2023-04-07T04:52:07;96383.02;;;5.41;73.29
72118;BME280;59992;47.490;8.736;2023-04-07T04:54:57;96379.70;;;5.38;74.33
72118;BME280;59992;47.490;8.736;2023-04-07T04:57:48;96374.97;;;5.35;74.47
72118;BME280;59992;47.490;8.736;2023-04-07T05:00:39;96370.77;;;5.33;74.47
72118;BME280;59992;47.490;8.736;2023-04-07T05:03:29;96365.89;;;5.28;73.76
72118;BME280;59992;47.490;8.736;2023-04-07T05:06:19;96359.93;;;5.23;72.34
72118;BME280;59992;47.490;8.736;2023-04-07T05:09:09;96360.77;;;5.20;71.32
72118;BME280;59992;47.490;8.736;2023-04-07T05:12:00;96356.33;;;5.20;70.31
72118;BME280;59992;47.490;8.736;2023-04-07T05:14:50;96353.61;;;5.19;71.89
72118;BME280;59992;47.490;8.736;2023-04-07T05:17:41;96359.73;;;5.18;72.81
72118;BME280;59992;47.490;8.736;2023-04-07T05:20:31;96353.85;;;5.20;74.11
72118;BME280;59992;47.490;8.736;2023-04-07T05:23:21;96343.56;;;5.15;73.77
72118;BME280;59992;47.490;8.736;2023-04-07T05:26:12;96352.31;;;5.26;71.18
72118;BME280;59992;47.490;8.736;2023-04-07T05:29:02;96347.79;;;5.31;70.80
72118;BME280;59992;47.490;8.736;2023-04-07T05:31:52;96342.49;;;5.34;72.41
72118;BME280;59992;47.490;8.736;2023-04-07T05:34:43;96338.05;;;5.37;73.37
72118;BME280;59992;47.490;8.736;2023-04-07T05:37:33;96336.19;;;5.42;72.27
72118;BME280;59992;47.490;8.736;2023-04-07T05:40:24;96340.91;;;5.47;74.80
72118;BME280;59992;47.490;8.736;2023-04-07T05:43:14;96345.38;;;5.54;74.57
72118;BME280;59992;47.490;8.736;2023-04-07T05:46:04;96346.97;;;5.59;75.31
72118;BME280;59992;47.490;8.736;2023-04-07T05:48:55;96346.71;;;5.66;74.53
72118;BME280;59992;47.490;8.736;2023-04-07T05:51:45;96344.30;;;5.74;73.88
72118;BME280;59992;47.490;8.736;2023-04-07T05:54:36;96344.90;;;5.84;72.85
72118;BME280;59992;47.490;8.736;2023-04-07T05:57:28;96343.32;;;5.94;72.18
72118;BME280;59992;47.490;8.736;2023-04-07T06:00:19;96342.39;;;6.05;70.84
72118;BME280;59992;47.490;8.736;2023-04-07T06:03:10;96339.17;;;6.17;69.90
72118;BME280;59992;47.490;8.736;2023-04-07T06:06:00;96338.82;;;6.28;69.39
72118;BME280;59992;47.490;8.736;2023-04-07T06:08:51;96335.70;;;6.39;68.75
72118;BME280;59992;47.490;8.736;2023-04-07T06:11:41;96341.58;;;6.52;68.36
72118;BME280;59992;47.490;8.736;2023-04-07T06:14:32;96343.27;;;6.62;68.89
72118;BME280;59992;47.490;8.736;2023-04-07T06:17:22;96347.96;;;6.73;70.07
72118;BME280;59992;47.490;8.736;2023-04-07T06:20:13;96341.65;;;6.83;68.95
72118;BME280;59992;47.490;8.736;2023-04-07T06:23:03;96338.98;;;6.94;68.46
72118;BME280;59992;47.490;8.736;2023-04-07T06:25:54;96340.50;;;7.11;67.01
72118;BME280;59992;47.490;8.736;2023-04-07T06:28:45;96342.11;;;7.26;67.31
72118;BME280;59992;47.490;8.736;2023-04-07T06:35:06;96349.32;;;7.49;65.04
72118;BME280;59992;47.490;8.736;2023-04-07T06:37:56;96354.97;;;7.53;65.56
72118;BME280;59992;47.490;8.736;2023-04-07T06:40:47;96357.20;;;7.58;65.38
72118;BME280;59992;47.490;8.736;2023-04-07T06:43:37;96358.65;;;7.63;65.34
72118;BME280;59992;47.490;8.736;2023-04-07T06:46:28;96366.14;;;7.71;64.52
72118;BME280;59992;47.490;8.736;2023-04-07T06:49:18;96359.47;;;7.80;64.02
72118;BME280;59992;47.490;8.736;2023-04-07T06:52:08;96358.29;;;7.82;63.84
72118;BME280;59992;47.490;8.736;2023-04-07T06:54:58;96357.11;;;7.86;64.02
72118;BME280;59992;47.490;8.736;2023-04-07T06:57:49;96356.77;;;7.92;63.88
72118;BME280;59992;47.490;8.736;2023-04-07T07:00:40;96353.20;;;8.02;64.24
72118;BME280;59992;47.490;8.736;2023-04-07T07:03:30;96351.51;;;8.16;62.76
72118;BME280;59992;47.490;8.736;2023-04-07T07:06:20;96352.50;;;8.29;61.94
72118;BME280;59992;47.490;8.736;2023-04-07T07:09:11;96350.41;;;8.42;61.67
72118;BME280;59992;47.490;8.736;2023-04-07T07:12:02;96352.77;;;8.56;61.48
72118;BME280;59992;47.490;8.736;2023-04-07T07:14:52;96352.36;;;8.81;61.36
72118;BME280;59992;47.490;8.736;2023-04-07T07:17:42;96353.30;;;9.07;60.44
72118;BME280;59992;47.490;8.736;2023-04-07T07:20:32;96355.13;;;9.22;59.64
72118;BME280;59992;47.490;8.736;2023-04-07T07:23:22;96359.39;;;9.25;59.30
72118;BME280;59992;47.490;8.736;2023-04-07T07:26:13;96359.96;;;9.29;59.35
72118;BME280;59992;47.490;8.736;2023-04-07T07:29:03;96364.61;;;9.35;58.34
72118;BME280;59992;47.490;8.736;2023-04-07T07:31:53;96363.41;;;9.42;58.17
72118;BME280;59992;47.490;8.736;2023-04-07T07:34:43;96363.98;;;9.45;58.13
72118;BME280;59992;47.490;8.736;2023-04-07T07:37:34;96362.46;;;9.49;57.64
72118;BME280;59992;47.490;8.736;2023-04-07T07:40:24;96361.14;;;9.53;57.59
72118;BME280;59992;47.490;8.736;2023-04-07T07:43:14;96361.20;;;9.57;56.80
72118;BME280;59992;47.490;8.736;2023-04-07T07:46:06;96359.92;;;9.62;56.86
72118;BME280;59992;47.490;8.736;2023-04-07T07:48:57;96351.38;;;9.52;55.58
72118;BME280;59992;47.490;8.736;2023-04-07T07:51:47;96363.75;;;9.56;57.07
72118;BME280;59992;47.490;8.736;2023-04-07T07:54:37;96360.35;;;9.55;56.86
72118;BME280;59992;47.490;8.736;2023-04-07T07:57:27;96363.62;;;9.57;57.23
72118;BME280;59992;47.490;8.736;2023-04-07T08:00:19;96368.38;;;9.62;56.92
72118;BME280;59992;47.490;8.736;2023-04-07T08:03:10;96364.34;;;9.65;57.74
72118;BME280;59992;47.490;8.736;2023-04-07T08:06:00;96364.30;;;9.63;57.06
72118;BME280;59992;47.490;8.736;2023-04-07T08:08:51;96362.39;;;9.55;57.45
72118;BME280;59992;47.490;8.736;2023-04-07T08:11:41;96368.70;;;9.52;56.91
72118;BME280;59992;47.490;8.736;2023-04-07T08:14:31;96374.71;;;9.50;57.30
72118;BME280;59992;47.490;8.736;2023-04-07T08:17:22;96377.92;;;9.41;57.41
72118;BME280;59992;47.490;8.736;2023-04-07T08:20:12;96379.70;;;9.29;57.51
72118;BME280;59992;47.490;8.736;2023-04-07T08:23:02;96381.22;;;9.25;57.62
72118;BME280;59992;47.490;8.736;2023-04-07T08:25:53;96380.55;;;9.20;58.05
72118;BME280;59992;47.490;8.736;2023-04-07T08:28:43;96384.71;;;9.16;58.06
72118;BME280;59992;47.490;8.736;2023-04-07T08:31:34;96387.61;;;9.12;57.53
72118;BME280;59992;47.490;8.736;2023-04-07T08:34:24;96392.72;;;9.20;57.61
72118;BME280;59992;47.490;8.736;2023-04-07T08:37:14;96396.73;;;9.26;57.16
72118;BME280;59992;47.490;8.736;2023-04-07T08:40:06;96398.47;;;9.35;57.85
72118;BME280;59992;47.490;8.736;2023-04-07T08:42:58;96400.04;;;9.49;57.62
72118;BME280;59992;47.490;8.736;2023-04-07T08:45:50;96399.70;;;9.62;57.11
72118;BME280;59992;47.490;8.736;2023-04-07T08:48:43;96398.98;;;9.76;56.78
72118;BME280;59992;47.490;8.736;2023-04-07T08:51:33;96406.82;;;9.81;56.24
72118;BME280;59992;47.490;8.736;2023-04-07T08:54:27;96408.40;;;9.90;55.77
72118;BME280;59992;47.490;8.736;2023-04-07T08:57:17;96409.46;;;9.97;56.08
72118;BME280;59992;47.490;8.736;2023-04-07T09:00:10;96415.89;;;10.13;56.05
72118;BME280;59992;47.490;8.736;2023-04-07T09:03:00;96415.50;;;10.25;55.07
72118;BME280;59992;47.490;8.736;2023-04-07T09:05:52;96418.86;;;10.46;55.19
72118;BME280;59992;47.490;8.736;2023-04-07T09:08:44;96417.40;;;10.67;55.16
72118;BME280;59992;47.490;8.736;2023-04-07T09:11:37;96417.27;;;10.85;54.33
72118;BME280;59992;47.490;8.736;2023-04-07T09:14:27;96418.45;;;10.98;53.60
72118;BME280;59992;47.490;8.736;2023-04-07T09:17:18;96412.06;;;11.03;51.58
72118;BME280;59992;47.490;8.736;2023-04-07T09:20:10;96419.34;;;11.23;52.22
72118;BME280;59992;47.490;8.736;2023-04-07T09:23:00;96420.30;;;11.30;53.12
72118;BME280;59992;47.490;8.736;2023-04-07T09:25:50;96415.02;;;11.32;53.15
72118;BME280;59992;47.490;8.736;2023-04-07T09:28:42;96418.58;;;11.31;51.55
72118;BME280;59992;47.490;8.736;2023-04-07T09:31:46;96417.62;;;11.34;51.87
72118;BME280;59992;47.490;8.736;2023-04-07T09:34:39;96417.23;;;11.41;52.64
72118;BME280;59992;47.490;8.736;2023-04-07T09:37:30;96416.65;;;11.48;52.35
72118;BME280;59992;47.490;8.736;2023-04-07T09:40:26;96420.30;;;11.47;53.30
72118;BME280;59992;47.490;8.736;2023-04-07T09:43:18;96421.50;;;11.66;52.01
72118;BME280;59992;47.490;8.736;2023-04-07T09:46:10;96428.91;;;11.84;50.74
72118;BME280;59992;47.490;8.736;2023-04-07T09:49:03;96424.48;;;11.93;50.43
72118;BME280;59992;47.490;8.736;2023-04-07T09:51:56;96427.42;;;12.06;51.12
72118;BME280;59992;47.490;8.736;2023-04-07T09:54:48;96432.34;;;12.16;51.22
72118;BME280;59992;47.490;8.736;2023-04-07T09:57:39;96437.27;;;12.31;51.46
72118;BME280;59992;47.490;8.736;2023-04-07T10:00:30;96444.27;;;12.33;51.26
72118;BME280;59992;47.490;8.736;2023-04-07T10:03:20;96443.75;;;12.42;50.42
72118;BME280;59992;47.490;8.736;2023-04-07T10:06:11;96442.42;;;12.49;50.57
72118;BME280;59992;47.490;8.736;2023-04-07T10:09:02;96441.44;;;12.31;50.49
72118;BME280;59992;47.490;8.736;2023-04-07T10:11:53;96441.59;;;12.31;51.96
72118;BME280;59992;47.490;8.736;2023-04-07T10:14:46;96448.87;;;12.29;53.25
72118;BME280;59992;47.490;8.736;2023-04-07T10:17:38;96448.86;;;12.27;53.42
72118;BME280;59992;47.490;8.736;2023-04-07T10:20:30;96453.05;;;12.15;53.80
72118;BME280;59992;47.490;8.736;2023-04-07T10:23:23;96454.77;;;12.07;53.93
72118;BME280;59992;47.490;8.736;2023-04-07T10:26:15;96454.23;;;12.07;54.74
72118;BME280;59992;47.490;8.736;2023-04-07T10:29:09;96452.21;;;12.14;55.17
72118;BME280;59992;47.490;8.736;2023-04-07T10:32:01;96456.69;;;12.26;54.99
72118;BME280;59992;47.490;8.736;2023-04-07T10:34:59;96464.34;;;12.25;54.98
72118;BME280;59992;47.490;8.736;2023-04-07T10:38:12;96462.01;;;12.14;54.04
72118;BME280;59992;47.490;8.736;2023-04-07T10:41:31;96466.54;;;12.24;54.28
72118;BME280;59992;47.490;8.736;2023-04-07T10:47:31;96456.44;;;12.42;54.07
72118;BME280;59992;47.490;8.736;2023-04-07T10:50:23;96459.13;;;12.47;53.28
72118;BME280;59992;47.490;8.736;2023-04-07T10:53:15;96467.23;;;12.40;53.17
72118;BME280;59992;47.490;8.736;2023-04-07T10:56:05;96470.09;;;12.18;53.61
72118;BME280;59992;47.490;8.736;2023-04-07T10:59:14;96470.23;;;12.21;53.86
72118;BME280;59992;47.490;8.736;2023-04-07T11:02:32;96464.39;;;12.35;54.02
72118;BME280;59992;47.490;8.736;2023-04-07T11:05:23;96461.72;;;12.34;53.87
72118;BME280;59992;47.490;8.736;2023-04-07T11:08:13;96464.36;;;12.45;53.86
72118;BME280;59992;47.490;8.736;2023-04-07T11:11:04;96469.30;;;12.46;53.98
72118;BME280;59992;47.490;8.736;2023-04-07T11:13:57;96467.78;;;12.66;52.87
72118;BME280;59992;47.490;8.736;2023-04-07T11:16:47;96467.94;;;12.47;52.97
72118;BME280;59992;47.490;8.736;2023-04-07T11:22:36;96475.27;;;12.61;53.13
72118;BME280;59992;47.490;8.736;2023-04-07T11:25:26;96479.48;;;12.47;52.75
72118;BME280;59992;47.490;8.736;2023-04-07T11:28:19;96485.27;;;12.34;53.85
72118;BME280;59992;47.490;8.736;2023-04-07T11:31:09;96481.30;;;12.44;53.03
72118;BME280;59992;47.490;8.736;2023-04-07T11:34:02;96489.13;;;12.31;53.81
72118;BME280;59992;47.490;8.736;2023-04-07T11:36:52;96492.63;;;12.32;53.21
72118;BME280;59992;47.490;8.736;2023-04-07T11:39:52;96495.59;;;12.18;53.33
72118;BME280;59992;47.490;8.736;2023-04-07T11:42:42;96493.54;;;12.18;53.89
72118;BME280;59992;47.490;8.736;2023-04-07T11:45:35;96491.71;;;12.17;53.47
72118;BME280;59992;47.490;8.736;2023-04-07T11:48:31;96499.80;;;11.99;53.15
72118;BME280;59992;47.490;8.736;2023-04-07T11:51:22;96502.96;;;11.57;53.95
72118;BME280;59992;47.490;8.736;2023-04-07T11:54:13;96502.86;;;11.46;55.68
72118;BME280;59992;47.490;8.736;2023-04-07T11:57:04;96502.08;;;11.42;54.99
72118;BME280;59992;47.490;8.736;2023-04-07T12:00:07;96504.28;;;11.42;55.23
72118;BME280;59992;47.490;8.736;2023-04-07T12:02:57;96508.04;;;11.38;55.92
72118;BME280;59992;47.490;8.736;2023-04-07T12:05:58;96509.17;;;11.31;56.33
72118;BME280;59992;47.490;8.736;2023-04-07T12:08:48;96510.46;;;11.30;57.77
72118;BME280;59992;47.490;8.736;2023-04-07T12:11:49;96517.36;;;11.30;58.65
72118;BME280;59992;47.490;8.736;2023-04-07T12:14:39;96513.27;;;11.21;58.59
72118;BME280;59992;47.490;8.736;2023-04-07T12:17:29;96520.15;;;11.05;60.36
72118;BME280;59992;47.490;8.736;2023-04-07T12:20:20;96520.89;;;10.97;61.84
72118;BME280;59992;47.490;8.736;2023-04-07T12:23:10;96526.17;;;10.95;62.08
72118;BME280;59992;47.490;8.736;2023-04-07T12:26:00;96526.52;;;10.92;63.14
72118;BME280;59992;47.490;8.736;2023-04-07T12:28:51;96524.28;;;10.87;63.88
72118;BME280;59992;47.490;8.736;2023-04-07T12:31:41;96526.77;;;10.73;64.60
72118;BME280;59992;47.490;8.736;2023-04-07T12:34:31;96526.33;;;10.55;64.91
72118;BME280;59992;47.490;8.736;2023-04-07T12:37:25;96522.30;;;10.37;64.40
72118;BME280;59992;47.490;8.736;2023-04-07T12:40:15;96525.07;;;10.28;65.61
72118;BME280;59992;47.490;8.736;2023-04-07T12:43:05;96522.48;;;10.17;65.90
72118;BME280;59992;47.490;8.736;2023-04-07T12:45:56;96525.09;;;10.04;67.27
72118;BME280;59992;47.490;8.736;2023-04-07T12:48:46;96520.55;;;10.05;66.28
72118;BME280;59992;47.490;8.736;2023-04-07T12:51:37;96518.73;;;10.00;67.90
72118;BME280;59992;47.490;8.736;2023-04-07T12:54:28;96516.25;;;9.85;67.77
72118;BME280;59992;47.490;8.736;2023-04-07T12:57:18;96517.73;;;9.78;67.47
72118;BME280;59992;47.490;8.736;2023-04-07T13:00:10;96518.33;;;9.63;67.80
72118;BME280;59992;47.490;8.736;2023-04-07T13:03:00;96517.00;;;9.51;68.33
72118;BME280;59992;47.490;8.736;2023-04-07T13:05:51;96517.96;;;9.59;68.32
72118;BME280;59992;47.490;8.736;2023-04-07T13:08:43;96521.17;;;9.65;67.77
72118;BME280;59992;47.490;8.736;2023-04-07T13:11:33;96523.90;;;9.60;68.29
72118;BME280;59992;47.490;8.736;2023-04-07T13:14:24;96526.23;;;9.65;66.82
72118;BME280;59992;47.490;8.736;2023-04-07T13:17:14;96523.14;;;9.71;66.31
72118;BME280;59992;47.490;8.736;2023-04-07T13:20:06;96525.00;;;9.64;65.67
72118;BME280;59992;47.490;8.736;2023-04-07T13:22:56;96524.69;;;9.73;65.11
72118;BME280;59992;47.490;8.736;2023-04-07T13:25:46;96522.13;;;9.79;65.30
72118;BME280;59992;47.490;8.736;2023-04-07T13:28:37;96518.36;;;9.89;63.73
72118;BME280;59992;47.490;8.736;2023-04-07T13:31:27;96514.50;;;9.79;63.57
72118;BME280;59992;47.490;8.736;2023-04-07T13:34:18;96514.80;;;9.89;63.02
72118;BME280;59992;47.490;8.736;2023-04-07T13:37:08;96518.32;;;9.96;63.26
72118;BME280;59992;47.490;8.736;2023-04-07T13:39:59;96518.35;;;10.00;62.09
72118;BME280;59992;47.490;8.736;2023-04-07T13:42:49;96518.44;;;10.10;61.83
72118;BME280;59992;47.490;8.736;2023-04-07T13:45:39;96523.66;;;10.05;61.31
72118;BME280;59992;47.490;8.736;2023-04-07T13:48:30;96526.79;;;10.16;61.89
72118;BME280;59992;47.490;8.736;2023-04-07T13:51:20;96524.59;;;10.21;61.52
72118;BME280;59992;47.490;8.736;2023-04-07T13:54:10;96523.20;;;10.30;61.71
72118;BME280;59992;47.490;8.736;2023-04-07T13:57:00;96515.23;;;10.12;60.90
72118;BME280;59992;47.490;8.736;2023-04-07T13:59:52;96519.53;;;10.16;62.19
72118;BME280;59992;47.490;8.736;2023-04-07T14:02:43;96517.48;;;10.15;62.29
72118;BME280;59992;47.490;8.736;2023-04-07T14:05:36;96519.16;;;10.17;62.53
72118;BME280;59992;47.490;8.736;2023-04-07T14:08:26;96518.33;;;10.22;62.14
72118;BME280;59992;47.490;8.736;2023-04-07T14:11:18;96509.88;;;10.37;60.93
72118;BME280;59992;47.490;8.736;2023-04-07T14:14:10;96512.98;;;10.47;61.29
72118;BME280;59992;47.490;8.736;2023-04-07T14:17:01;96511.16;;;10.53;60.63
72118;BME280;59992;47.490;8.736;2023-04-07T14:19:52;96509.73;;;10.54;60.97
72118;BME280;59992;47.490;8.736;2023-04-07T14:22:48;96510.75;;;10.58;61.58
72118;BME280;59992;47.490;8.736;2023-04-07T14:25:46;96510.67;;;10.63;61.17
72118;BME280;59992;47.490;8.736;2023-04-07T14:28:37;96509.25;;;10.71;60.85
72118;BME280;59992;47.490;8.736;2023-04-07T14:31:28;96508.17;;;10.77;61.05
72118;BME280;59992;47.490;8.736;2023-04-07T14:34:18;96504.69;;;10.83;60.01
72118;BME280;59992;47.490;8.736;2023-04-07T14:37:08;96500.86;;;10.87;59.59
72118;BME280;59992;47.490;8.736;2023-04-07T14:39:59;96500.85;;;10.79;59.05
72118;BME280;59992;47.490;8.736;2023-04-07T14:42:50;96498.17;;;10.77;59.84
72118;BME280;59992;47.490;8.736;2023-04-07T14:45:40;96499.47;;;10.71;59.63
72118;BME280;59992;47.490;8.736;2023-04-07T14:48:30;96497.77;;;10.67;59.46
72118;BME280;59992;47.490;8.736;2023-04-07T14:51:22;96498.45;;;10.61;60.27
72118;BME280;59992;47.490;8.736;2023-04-07T14:54:13;96502.00;;;10.67;59.19
72118;BME280;59992;47.490;8.736;2023-04-07T14:57:04;96498.96;;;10.60;59.47
72118;BME280;59992;47.490;8.736;2023-04-07T14:59:54;96500.19;;;10.61;59.70
72118;BME280;59992;47.490;8.736;2023-04-07T15:02:45;96500.70;;;10.60;59.80
72118;BME280;59992;47.490;8.736;2023-04-07T15:05:35;96502.14;;;10.66;58.92
72118;BME280;59992;47.490;8.736;2023-04-07T15:08:25;96501.95;;;10.56;59.49
72118;BME280;59992;47.490;8.736;2023-04-07T15:11:16;96504.08;;;10.63;60.52
72118;BME280;59992;47.490;8.736;2023-04-07T15:14:06;96504.88;;;10.73;59.23
72118;BME280;59992;47.490;8.736;2023-04-07T15:16:56;96503.88;;;10.66;57.90
72118;BME280;59992;47.490;8.736;2023-04-07T15:19:47;96506.20;;;10.69;57.39
72118;BME280;59992;47.490;8.736;2023-04-07T15:22:37;96507.77;;;10.67;57.82
72118;BME280;59992;47.490;8.736;2023-04-07T15:25:27;96510.89;;;10.75;57.88
72118;BME280;59992;47.490;8.736;2023-04-07T15:28:18;96516.35;;;10.84;57.06